sensor_id;sensor_type;location;lat;lon;timestamp;pressure;altitude;pressure_sealevel;temperature;humidity
61554;BME280;47425;51.976;5.326;2022-12-24T13:47:51;101178.53;;;16.39;55.09
61554;BME280;47425;51.976;5.326;2022-12-24T13:50:22;101176.28;;;16.06;55.14
61554;BME280;47425;51.976;5.326;2022-12-24T13:52:52;101178.81;;;15.86;55.67
61554;BME280;47425;51.976;5.326;2022-12-24T13:55:20;101182.63;;;15.77;55.75
61554;BME280;47425;51.976;5.326;2022-12-24T13:58:17;101183.88;;;15.67;55.36
61554;BME280;47425;51.976;5.326;2022-12-24T14:00:52;101180.00;;;15.52;55.46
61554;BME280;47425;51.976;5.326;2022-12-24T14:03:27;101179.88;;;15.55;55.88
61554;BME280;47425;51.976;5.326;2022-12-24T14:05:57;101180.44;;;15.65;55.82
61554;BME280;47425;51.976;5.326;2022-12-24T14:08:31;101193.31;;;15.74;55.17
61554;BME280;47425;51.976;5.326;2022-12-24T14:11:09;101180.97;;;15.49;54.87
61554;BME280;47425;51.976;5.326;2022-12-24T14:13:52;101193.38;;;15.47;55.85
61554;BME280;47425;51.976;5.326;2022-12-24T14:16:21;101200.91;;;15.33;56.04
61554;BME280;47425;51.976;5.326;2022-12-24T14:18:57;101205.53;;;15.26;56.15
61554;BME280;47425;51.976;5.326;2022-12-24T14:21:29;101196.16;;;15.17;56.50
61554;BME280;47425;51.976;5.326;2022-12-24T14:24:00;101209.84;;;15.29;55.73
61554;BME280;47425;51.976;5.326;2022-12-24T14:26:31;101197.78;;;15.21;55.83
61554;BME280;47425;51.976;5.326;2022-12-24T14:29:02;101198.19;;;15.09;56.19
61554;BME280;47425;51.976;5.326;2022-12-24T14:31:30;101202.75;;;15.04;56.43
61554;BME280;47425;51.976;5.326;2022-12-24T14:34:10;101205.09;;;15.13;56.71
61554;BME280;47425;51.976;5.326;2022-12-24T14:36:38;101206.50;;;15.23;56.00
61554;BME280;47425;51.976;5.326;2022-12-24T14:39:14;101213.00;;;15.13;56.56
61554;BME280;47425;51.976;5.326;2022-12-24T14:41:52;101214.78;;;15.13;56.56
61554;BME280;47425;51.976;5.326;2022-12-24T14:44:27;101217.25;;;15.17;55.92
61554;BME280;47425;51.976;5.326;2022-12-24T14:46:59;101224.00;;;15.26;56.09
61554;BME280;47425;51.976;5.326;2022-12-24T14:49:39;101228.97;;;15.35;55.40
61554;BME280;47425;51.976;5.326;2022-12-24T14:52:15;101232.69;;;15.30;55.98
61554;BME280;47425;51.976;5.326;2022-12-24T14:54:44;101233.44;;;15.33;55.93
61554;BME280;47425;51.976;5.326;2022-12-24T14:57:17;101231.81;;;15.29;55.91
61554;BME280;47425;51.976;5.326;2022-12-24T14:59:46;101239.84;;;15.26;55.37
61554;BME280;47425;51.976;5.326;2022-12-24T15:02:23;101246.25;;;15.19;56.08
61554;BME280;47425;51.976;5.326;2022-12-24T15:05:10;101255.63;;;15.27;55.83
61554;BME280;47425;51.976;5.326;2022-12-24T15:07:41;101252.84;;;15.32;55.91
61554;BME280;47425;51.976;5.326;2022-12-24T15:10:24;101260.41;;;15.43;55.56
61554;BME280;47425;51.976;5.326;2022-12-24T15:12:51;101257.69;;;15.44;54.99
61554;BME280;47425;51.976;5.326;2022-12-24T15:15:19;101252.97;;;15.27;55.49
61554;BME280;47425;51.976;5.326;2022-12-24T15:17:46;101254.91;;;15.22;55.41
61554;BME280;47425;51.976;5.326;2022-12-24T15:20:16;101260.28;;;15.19;55.70
61554;BME280;47425;51.976;5.326;2022-12-24T15:22:46;101263.72;;;15.21;55.45
61554;BME280;47425;51.976;5.326;2022-12-24T15:25:18;101253.09;;;15.24;55.47
61554;BME280;47425;51.976;5.326;2022-12-24T15:27:45;101263.34;;;15.34;55.26
61554;BME280;47425;51.976;5.326;2022-12-24T15:30:16;101263.88;;;15.43;54.94
61554;BME280;47425;51.976;5.326;2022-12-24T15:32:42;101271.59;;;15.50;54.94
61554;BME280;47425;51.976;5.326;2022-12-24T15:35:33;101275.09;;;15.50;55.00
61554;BME280;47425;51.976;5.326;2022-12-24T15:38:01;101273.16;;;15.55;54.50
61554;BME280;47425;51.976;5.326;2022-12-24T15:40:32;101272.94;;;15.61;54.40
61554;BME280;47425;51.976;5.326;2022-12-24T15:42:59;101280.78;;;15.65;54.29
61554;BME280;47425;51.976;5.326;2022-12-24T15:45:27;101278.13;;;15.65;54.05
61554;BME280;47425;51.976;5.326;2022-12-24T15:47:55;101286.69;;;15.71;54.24
61554;BME280;47425;51.976;5.326;2022-12-24T15:50:26;101285.16;;;15.64;54.25
61554;BME280;47425;51.976;5.326;2022-12-24T15:52:56;101282.66;;;15.61;54.15
61554;BME280;47425;51.976;5.326;2022-12-24T15:55:27;101285.41;;;15.58;53.83
61554;BME280;47425;51.976;5.326;2022-12-24T15:57:55;101291.94;;;15.46;54.51
61554;BME280;47425;51.976;5.326;2022-12-24T16:00:22;101284.28;;;15.38;54.22
61554;BME280;47425;51.976;5.326;2022-12-24T16:02:52;101293.34;;;15.31;54.66
61554;BME280;47425;51.976;5.326;2022-12-24T16:05:31;101297.72;;;15.32;54.89
61554;BME280;47425;51.976;5.326;2022-12-24T16:08:04;101294.19;;;15.32;54.70
61554;BME280;47425;51.976;5.326;2022-12-24T16:10:35;101288.34;;;15.22;55.06
61554;BME280;47425;51.976;5.326;2022-12-24T16:13:11;101291.19;;;15.16;55.06
61554;BME280;47425;51.976;5.326;2022-12-24T16:15:44;101292.06;;;15.16;55.31
61554;BME280;47425;51.976;5.326;2022-12-24T16:18:17;101293.75;;;15.19;55.07
61554;BME280;47425;51.976;5.326;2022-12-24T16:20:48;101288.34;;;15.22;54.41
61554;BME280;47425;51.976;5.326;2022-12-24T16:23:17;101285.66;;;15.23;54.90
61554;BME280;47425;51.976;5.326;2022-12-24T16:25:44;101283.31;;;15.14;55.33
61554;BME280;47425;51.976;5.326;2022-12-24T16:28:11;101282.34;;;15.17;55.26
61554;BME280;47425;51.976;5.326;2022-12-24T16:30:38;101284.88;;;15.20;55.30
61554;BME280;47425;51.976;5.326;2022-12-24T16:33:12;101291.78;;;15.24;54.99
61554;BME280;47425;51.976;5.326;2022-12-24T16:35:40;101297.03;;;15.25;55.23
61554;BME280;47425;51.976;5.326;2022-12-24T16:38:08;101299.56;;;15.29;54.71
61554;BME280;47425;51.976;5.326;2022-12-24T16:40:51;101307.47;;;15.29;54.85
61554;BME280;47425;51.976;5.326;2022-12-24T16:43:17;101306.72;;;15.25;54.91
61554;BME280;47425;51.976;5.326;2022-12-24T16:46:04;101301.59;;;15.20;54.71
61554;BME280;47425;51.976;5.326;2022-12-24T16:48:35;101303.47;;;15.17;55.01
61554;BME280;47425;51.976;5.326;2022-12-24T16:51:04;101302.69;;;15.13;55.26
61554;BME280;47425;51.976;5.326;2022-12-24T16:53:31;101308.94;;;15.10;54.53
61554;BME280;47425;51.976;5.326;2022-12-24T16:55:59;101301.47;;;14.97;55.45
61554;BME280;47425;51.976;5.326;2022-12-24T16:58:26;101296.38;;;14.90;54.78
61554;BME280;47425;51.976;5.326;2022-12-24T17:00:54;101302.75;;;14.83;55.99
61554;BME280;47425;51.976;5.326;2022-12-24T17:03:21;101306.13;;;14.88;55.68
61554;BME280;47425;51.976;5.326;2022-12-24T17:05:47;101301.47;;;14.97;55.91
61554;BME280;47425;51.976;5.326;2022-12-24T17:08:15;101286.75;;;14.89;55.31
61554;BME280;47425;51.976;5.326;2022-12-24T17:10:49;101306.63;;;15.00;55.45
61554;BME280;47425;51.976;5.326;2022-12-24T17:13:17;101289.91;;;15.01;55.31
61554;BME280;47425;51.976;5.326;2022-12-24T17:15:43;101295.56;;;14.88;55.19
61554;BME280;47425;51.976;5.326;2022-12-24T17:18:11;101295.56;;;14.58;54.47
61554;BME280;47425;51.976;5.326;2022-12-24T17:20:38;101292.75;;;14.35;54.94
61554;BME280;47425;51.976;5.326;2022-12-24T17:23:04;101290.72;;;14.13;55.27
61554;BME280;47425;51.976;5.326;2022-12-24T17:25:34;101293.00;;;13.94;57.03
61554;BME280;47425;51.976;5.326;2022-12-24T17:28:00;101294.56;;;14.01;57.17
61554;BME280;47425;51.976;5.326;2022-12-24T17:30:30;101301.34;;;14.10;57.21
61554;BME280;47425;51.976;5.326;2022-12-24T17:32:56;101293.31;;;14.15;56.32
61554;BME280;47425;51.976;5.326;2022-12-24T17:35:23;101291.50;;;14.17;56.95
61554;BME280;47425;51.976;5.326;2022-12-24T17:37:49;101293.91;;;14.24;56.99
61554;BME280;47425;51.976;5.326;2022-12-24T17:40:16;101283.06;;;14.35;56.92
61554;BME280;47425;51.976;5.326;2022-12-24T17:42:43;101291.56;;;14.45;56.61
61554;BME280;47425;51.976;5.326;2022-12-24T17:45:10;101298.53;;;14.48;56.88
61554;BME280;47425;51.976;5.326;2022-12-24T17:48:03;101291.25;;;14.56;56.28
61554;BME280;47425;51.976;5.326;2022-12-24T17:50:30;101293.69;;;14.62;56.19
61554;BME280;47425;51.976;5.326;2022-12-24T17:52:57;101292.75;;;14.65;56.52
61554;BME280;47425;51.976;5.326;2022-12-24T17:55:23;101287.38;;;14.69;56.35
61554;BME280;47425;51.976;5.326;2022-12-24T17:57:50;101290.81;;;14.71;56.32
61554;BME280;47425;51.976;5.326;2022-12-24T18:00:17;101281.03;;;14.75;56.36
61554;BME280;47425;51.976;5.326;2022-12-24T18:02:44;101290.56;;;14.79;56.14
61554;BME280;47425;51.976;5.326;2022-12-24T18:05:12;101283.44;;;14.83;56.49
61554;BME280;47425;51.976;5.326;2022-12-24T18:07:38;101291.00;;;14.93;56.21
61554;BME280;47425;51.976;5.326;2022-12-24T18:10:06;101290.50;;;15.09;56.29
61554;BME280;47425;51.976;5.326;2022-12-24T18:12:34;101295.38;;;15.23;55.63
61554;BME280;47425;51.976;5.326;2022-12-24T18:15:01;101295.81;;;15.36;55.52
61554;BME280;47425;51.976;5.326;2022-12-24T18:17:27;101296.31;;;15.47;55.15
61554;BME280;47425;51.976;5.326;2022-12-24T18:19:54;101302.25;;;15.54;54.48
61554;BME280;47425;51.976;5.326;2022-12-24T18:22:22;101311.88;;;15.55;54.68
61554;BME280;47425;51.976;5.326;2022-12-24T18:24:49;101308.34;;;15.56;54.49
61554;BME280;47425;51.976;5.326;2022-12-24T18:27:15;101309.25;;;15.55;54.30
61554;BME280;47425;51.976;5.326;2022-12-24T18:29:43;101303.75;;;15.61;54.27
61554;BME280;47425;51.976;5.326;2022-12-24T18:32:10;101295.84;;;15.61;54.41
61554;BME280;47425;51.976;5.326;2022-12-24T18:34:37;101301.56;;;15.74;53.77
61554;BME280;47425;51.976;5.326;2022-12-24T18:37:03;101302.50;;;15.73;54.03
61554;BME280;47425;51.976;5.326;2022-12-24T18:39:31;101299.84;;;15.73;53.82
61554;BME280;47425;51.976;5.326;2022-12-24T18:41:58;101307.59;;;15.77;53.75
61554;BME280;47425;51.976;5.326;2022-12-24T18:44:25;101305.78;;;15.80;53.78
61554;BME280;47425;51.976;5.326;2022-12-24T18:46:53;101304.91;;;15.81;53.76
61554;BME280;47425;51.976;5.326;2022-12-24T18:49:20;101301.31;;;15.82;53.83
61554;BME280;47425;51.976;5.326;2022-12-24T18:51:46;101304.03;;;15.80;53.78
61554;BME280;47425;51.976;5.326;2022-12-24T18:54:13;101311.06;;;15.80;53.86
61554;BME280;47425;51.976;5.326;2022-12-24T18:56:41;101304.84;;;15.82;53.80
61554;BME280;47425;51.976;5.326;2022-12-24T18:59:08;101310.00;;;15.85;53.73
61554;BME280;47425;51.976;5.326;2022-12-24T19:01:34;101302.03;;;15.87;53.61
61554;BME280;47425;51.976;5.326;2022-12-24T19:04:01;101314.25;;;15.89;53.19
61554;BME280;47425;51.976;5.326;2022-12-24T19:06:28;101309.94;;;15.87;53.31
61554;BME280;47425;51.976;5.326;2022-12-24T19:08:55;101309.16;;;15.85;53.39
61554;BME280;47425;51.976;5.326;2022-12-24T19:11:21;101305.78;;;15.80;53.48
61554;BME280;47425;51.976;5.326;2022-12-24T19:16:33;101303.00;;;15.84;53.42
61554;BME280;47425;51.976;5.326;2022-12-24T19:19:03;101306.34;;;15.89;53.56
61554;BME280;47425;51.976;5.326;2022-12-24T19:21:30;101303.56;;;15.94;53.17
61554;BME280;47425;51.976;5.326;2022-12-24T19:24:12;101301.69;;;15.96;53.37
61554;BME280;47425;51.976;5.326;2022-12-24T19:26:39;101304.41;;;15.94;53.26
61554;BME280;47425;51.976;5.326;2022-12-24T19:29:07;101299.13;;;15.94;53.19
61554;BME280;47425;51.976;5.326;2022-12-24T19:31:34;101306.13;;;15.96;53.32
61554;BME280;47425;51.976;5.326;2022-12-24T19:34:01;101301.69;;;15.96;53.00
61554;BME280;47425;51.976;5.326;2022-12-24T19:36:29;101286.88;;;15.92;53.29
61554;BME280;47425;51.976;5.326;2022-12-24T19:38:57;101295.38;;;16.00;53.26
61554;BME280;47425;51.976;5.326;2022-12-24T19:41:25;101288.28;;;16.02;53.20
61554;BME280;47425;51.976;5.326;2022-12-24T19:43:55;101297.06;;;16.03;52.91
61554;BME280;47425;51.976;5.326;2022-12-24T19:46:27;101297.88;;;16.05;52.98
61554;BME280;47425;51.976;5.326;2022-12-24T19:48:57;101303.03;;;16.08;52.98
61554;BME280;47425;51.976;5.326;2022-12-24T19:51:25;101304.78;;;16.09;52.88
61554;BME280;47425;51.976;5.326;2022-12-24T19:53:53;101319.69;;;16.10;52.34
61554;BME280;47425;51.976;5.326;2022-12-24T19:56:22;101318.06;;;16.07;52.94
61554;BME280;47425;51.976;5.326;2022-12-24T19:58:49;101319.81;;;16.07;52.74
61554;BME280;47425;51.976;5.326;2022-12-24T20:01:19;101320.69;;;16.07;52.68
61554;BME280;47425;51.976;5.326;2022-12-24T20:03:49;101318.97;;;16.06;52.55
61554;BME280;47425;51.976;5.326;2022-12-24T20:06:18;101326.97;;;16.03;52.75
61554;BME280;47425;51.976;5.326;2022-12-24T20:08:46;101319.03;;;16.03;52.67
61554;BME280;47425;51.976;5.326;2022-12-24T20:11:33;101316.53;;;16.00;52.77
61554;BME280;47425;51.976;5.326;2022-12-24T20:14:01;101332.22;;;16.05;52.77
61554;BME280;47425;51.976;5.326;2022-12-24T20:16:29;101330.31;;;16.08;52.94
61554;BME280;47425;51.976;5.326;2022-12-24T20:18:58;101332.88;;;16.12;52.69
61554;BME280;47425;51.976;5.326;2022-12-24T20:21:27;101331.84;;;16.16;52.78
61554;BME280;47425;51.976;5.326;2022-12-24T20:23:54;101317.69;;;16.17;52.80
61554;BME280;47425;51.976;5.326;2022-12-24T20:26:22;101310.53;;;16.20;52.51
61554;BME280;47425;51.976;5.326;2022-12-24T20:28:49;101317.34;;;16.27;52.39
61554;BME280;47425;51.976;5.326;2022-12-24T20:31:17;101301.81;;;16.18;52.44
61554;BME280;47425;51.976;5.326;2022-12-24T20:33:45;101313.88;;;16.25;52.30
61554;BME280;47425;51.976;5.326;2022-12-24T20:36:15;101313.00;;;16.25;51.98
61554;BME280;47425;51.976;5.326;2022-12-24T20:38:42;101313.75;;;16.28;52.07
61554;BME280;47425;51.976;5.326;2022-12-24T20:41:09;101299.75;;;16.26;52.18
61554;BME280;47425;51.976;5.326;2022-12-24T20:43:36;101309.72;;;16.18;52.32
61554;BME280;47425;51.976;5.326;2022-12-24T20:46:03;101311.13;;;16.03;52.86
61554;BME280;47425;51.976;5.326;2022-12-24T20:48:30;101301.81;;;15.93;52.86
61554;BME280;47425;51.976;5.326;2022-12-24T20:50:57;101300.91;;;15.94;53.19
61554;BME280;47425;51.976;5.326;2022-12-24T20:53:26;101293.78;;;15.96;52.97
61554;BME280;47425;51.976;5.326;2022-12-24T20:55:53;101302.66;;;15.93;53.38
61554;BME280;47425;51.976;5.326;2022-12-24T20:58:20;101310.44;;;15.98;53.20
61554;BME280;47425;51.976;5.326;2022-12-24T21:00:48;101300.47;;;16.06;52.94
61554;BME280;47425;51.976;5.326;2022-12-24T21:03:15;101292.41;;;16.09;52.83
61554;BME280;47425;51.976;5.326;2022-12-24T21:05:43;101282.13;;;16.02;52.99
61554;BME280;47425;51.976;5.326;2022-12-24T21:08:11;101298.78;;;16.04;52.87
61554;BME280;47425;51.976;5.326;2022-12-24T21:10:39;101295.25;;;16.05;53.03
61554;BME280;47425;51.976;5.326;2022-12-24T21:13:06;101298.41;;;15.89;53.07
61554;BME280;47425;51.976;5.326;2022-12-24T21:15:36;101302.03;;;15.87;53.31
61554;BME280;47425;51.976;5.326;2022-12-24T21:18:06;101296.81;;;15.85;53.47
61554;BME280;47425;51.976;5.326;2022-12-24T21:20:37;101291.25;;;15.93;53.25
61554;BME280;47425;51.976;5.326;2022-12-24T21:23:04;101282.19;;;16.00;52.99
61554;BME280;47425;51.976;5.326;2022-12-24T21:25:33;101277.78;;;16.01;53.03
61554;BME280;47425;51.976;5.326;2022-12-24T21:28:01;101282.94;;;16.04;52.88
61554;BME280;47425;51.976;5.326;2022-12-24T21:30:28;101280.19;;;16.07;53.03
61554;BME280;47425;51.976;5.326;2022-12-24T21:32:56;101272.44;;;16.02;52.86
61554;BME280;47425;51.976;5.326;2022-12-24T21:35:22;101276.84;;;16.02;52.88
61554;BME280;47425;51.976;5.326;2022-12-24T21:37:49;101277.81;;;15.99;52.98
61554;BME280;47425;51.976;5.326;2022-12-24T21:40:16;101282.13;;;16.02;52.89
61554;BME280;47425;51.976;5.326;2022-12-24T21:42:42;101268.84;;;16.03;52.69
61554;BME280;47425;51.976;5.326;2022-12-24T21:45:11;101267.31;;;15.98;53.06
61554;BME280;47425;51.976;5.326;2022-12-24T21:47:37;101270.72;;;16.01;52.94
61554;BME280;47425;51.976;5.326;2022-12-24T21:50:09;101259.16;;;16.04;52.99
61554;BME280;47425;51.976;5.326;2022-12-24T21:52:54;101257.22;;;16.09;53.04
61554;BME280;47425;51.976;5.326;2022-12-24T21:55:40;101251.13;;;16.07;52.93
61554;BME280;47425;51.976;5.326;2022-12-24T21:58:06;101248.66;;;16.02;53.10
61554;BME280;47425;51.976;5.326;2022-12-24T22:00:34;101245.97;;;16.04;52.90
61554;BME280;47425;51.976;5.326;2022-12-24T22:03:01;101249.22;;;16.10;52.91
61554;BME280;47425;51.976;5.326;2022-12-24T22:05:32;101260.66;;;16.11;52.44
61554;BME280;47425;51.976;5.326;2022-12-24T22:08:19;101263.47;;;16.06;52.86
61554;BME280;47425;51.976;5.326;2022-12-24T22:11:05;101272.25;;;16.07;52.80
61554;BME280;47425;51.976;5.326;2022-12-24T22:13:51;101267.03;;;16.05;52.67
61554;BME280;47425;51.976;5.326;2022-12-24T22:16:18;101260.34;;;15.95;52.96
61554;BME280;47425;51.976;5.326;2022-12-24T22:18:45;101263.06;;;15.93;52.88
61554;BME280;47425;51.976;5.326;2022-12-24T22:23:55;101261.06;;;16.00;52.84
61554;BME280;47425;51.976;5.326;2022-12-24T22:26:22;101260.91;;;16.05;52.87
61554;BME280;47425;51.976;5.326;2022-12-24T22:28:49;101261.69;;;16.07;52.65
61554;BME280;47425;51.976;5.326;2022-12-24T22:31:19;101264.38;;;16.05;53.01
61554;BME280;47425;51.976;5.326;2022-12-24T22:34:08;101268.75;;;16.06;52.80
61554;BME280;47425;51.976;5.326;2022-12-24T22:36:36;101272.38;;;16.04;52.67
61554;BME280;47425;51.976;5.326;2022-12-24T22:39:03;101272.50;;;16.01;52.79
61554;BME280;47425;51.976;5.326;2022-12-24T22:41:29;101271.47;;;16.05;52.58
61554;BME280;47425;51.976;5.326;2022-12-24T22:43:56;101267.22;;;16.01;52.80
61554;BME280;47425;51.976;5.326;2022-12-24T22:46:24;101271.84;;;15.94;53.17
61554;BME280;47425;51.976;5.326;2022-12-24T22:48:51;101281.47;;;15.95;52.91
61554;BME280;47425;51.976;5.326;2022-12-24T22:51:19;101268.22;;;15.97;53.33
61554;BME280;47425;51.976;5.326;2022-12-24T22:53:47;101273.41;;;16.00;53.09
61554;BME280;47425;51.976;5.326;2022-12-24T22:56:15;101272.72;;;15.94;52.98
61554;BME280;47425;51.976;5.326;2022-12-24T22:58:42;101277.81;;;15.99;52.81
61554;BME280;47425;51.976;5.326;2022-12-24T23:01:11;101281.47;;;15.95;52.85
61554;BME280;47425;51.976;5.326;2022-12-24T23:03:38;101290.50;;;15.89;52.75
61554;BME280;47425;51.976;5.326;2022-12-24T23:06:06;101290.06;;;15.75;53.09
61554;BME280;47425;51.976;5.326;2022-12-24T23:08:34;101296.50;;;15.68;52.82
61554;BME280;47425;51.976;5.326;2022-12-24T23:11:05;101300.41;;;15.56;53.84
61554;BME280;47425;51.976;5.326;2022-12-24T23:13:32;101302.09;;;15.58;53.43
61554;BME280;47425;51.976;5.326;2022-12-24T23:16:16;101302.19;;;15.55;53.66
61554;BME280;47425;51.976;5.326;2022-12-24T23:18:46;101307.47;;;15.55;53.77
61554;BME280;47425;51.976;5.326;2022-12-24T23:21:12;101300.16;;;15.64;53.82
61554;BME280;47425;51.976;5.326;2022-12-24T23:26:20;101311.19;;;15.76;53.81
61554;BME280;47425;51.976;5.326;2022-12-24T23:28:48;101309.31;;;15.80;53.57
61554;BME280;47425;51.976;5.326;2022-12-24T23:31:18;101314.53;;;15.82;53.36
61554;BME280;47425;51.976;5.326;2022-12-24T23:33:46;101312.59;;;15.87;53.36
61554;BME280;47425;51.976;5.326;2022-12-24T23:36:13;101323.09;;;15.88;53.65
61554;BME280;47425;51.976;5.326;2022-12-24T23:38:41;101322.19;;;15.89;53.22
61554;BME280;47425;51.976;5.326;2022-12-24T23:41:09;101316.00;;;15.90;53.54
61554;BME280;47425;51.976;5.326;2022-12-24T23:43:36;101295.91;;;15.86;53.16
61554;BME280;47425;51.976;5.326;2022-12-24T23:46:03;101301.88;;;15.91;53.11
61554;BME280;47425;51.976;5.326;2022-12-24T23:48:45;101291.41;;;15.88;53.31
61554;BME280;47425;51.976;5.326;2022-12-24T23:51:14;101279.16;;;15.86;53.19
61554;BME280;47425;51.976;5.326;2022-12-24T23:53:42;101282.69;;;15.86;53.68
61554;BME280;47425;51.976;5.326;2022-12-24T23:56:09;101280.00;;;15.88;53.38
61554;BME280;47425;51.976;5.326;2022-12-24T23:58:36;101286.06;;;15.90;53.45
